Thatta, Pakistan
Current Conditions -  °F | °C
As of 9:55 PM on Tuesday 21 Oct 2014 (Local Time) from OPKC Reporting Station
Clear Clear  
Wind Chill: 81°   Ceiling: Unl
Heat Index: 81°   Visibility: 4mi
Dew Point: 54°   Wind: 3mph
Humidity: 39%   Direction: 360°N
Pressure: 29.97"   Gusts: NA
Location:  24.75°N, 67.92°E
Report Text: OPKC 211655Z 36003KT 6000 NSC 27/12 Q1015 NOSIG
Loading
Personal Weather Stations






























Interactive Weather Map
Tropical Storm Tracking
New forecast layout! Learn more

10-Day Weather Forecast

Advertisements
Track Severe Weather on mobile